sensor_id;sensor_type;location;lat;lon;timestamp;temperature;humidity
33207;DHT22;19565;46.602;11.534;2024-01-25T00:00:30;3.60;99.90
33207;DHT22;19565;46.602;11.534;2024-01-25T00:02:58;3.40;99.90
33207;DHT22;19565;46.602;11.534;2024-01-25T00:05:27;3.20;99.90
33207;DHT22;19565;46.602;11.534;2024-01-25T00:07:56;3.10;99.90
33207;DHT22;19565;46.602;11.534;2024-01-25T00:10:24;3.10;99.90
33207;DHT22;19565;46.602;11.534;2024-01-25T00:12:52;3.20;99.90
33207;DHT22;19565;46.602;11.534;2024-01-25T00:15:20;3.30;99.90
33207;DHT22;19565;46.602;11.534;2024-01-25T00:17:48;3.30;99.90
33207;DHT22;19565;46.602;11.534;2024-01-25T00:20:17;3.20;99.90
33207;DHT22;19565;46.602;11.534;2024-01-25T00:22:46;3.30;99.90
33207;DHT22;19565;46.602;11.534;2024-01-25T00:25:14;3.40;99.90
33207;DHT22;19565;46.602;11.534;2024-01-25T00:27:43;3.40;99.90
33207;DHT22;19565;46.602;11.534;2024-01-25T00:30:12;3.40;99.90
33207;DHT22;19565;46.602;11.534;2024-01-25T00:32:40;3.30;99.90
33207;DHT22;19565;46.602;11.534;2024-01-25T00:35:09;3.20;99.90
33207;DHT22;19565;46.602;11.534;2024-01-25T00:37:41;3.30;99.90
33207;DHT22;19565;46.602;11.534;2024-01-25T00:40:12;3.30;99.90
33207;DHT22;19565;46.602;11.534;2024-01-25T00:42:42;3.40;99.90
33207;DHT22;19565;46.602;11.534;2024-01-25T00:45:12;3.40;99.90
33207;DHT22;19565;46.602;11.534;2024-01-25T00:47:40;3.40;99.90
33207;DHT22;19565;46.602;11.534;2024-01-25T00:50:09;3.40;99.90
33207;DHT22;19565;46.602;11.534;2024-01-25T00:52:38;3.50;99.90
33207;DHT22;19565;46.602;11.534;2024-01-25T00:55:07;3.50;99.90
33207;DHT22;19565;46.602;11.534;2024-01-25T00:57:38;3.40;99.90
33207;DHT22;19565;46.602;11.534;2024-01-25T01:00:10;3.30;99.90
33207;DHT22;19565;46.602;11.534;2024-01-25T01:02:41;3.30;99.90
33207;DHT22;19565;46.602;11.534;2024-01-25T01:05:11;3.40;99.90
33207;DHT22;19565;46.602;11.534;2024-01-25T01:07:40;3.20;99.90
33207;DHT22;19565;46.602;11.534;2024-01-25T01:10:09;3.10;99.90
33207;DHT22;19565;46.602;11.534;2024-01-25T01:12:38;3.20;99.90
33207;DHT22;19565;46.602;11.534;2024-01-25T01:15:07;3.30;99.90
33207;DHT22;19565;46.602;11.534;2024-01-25T01:17:35;3.30;99.90
33207;DHT22;19565;46.602;11.534;2024-01-25T01:20:04;3.20;99.90
33207;DHT22;19565;46.602;11.534;2024-01-25T01:22:33;3.10;99.90
33207;DHT22;19565;46.602;11.534;2024-01-25T01:25:01;3.00;99.90
33207;DHT22;19565;46.602;11.534;2024-01-25T01:27:29;3.10;99.90
33207;DHT22;19565;46.602;11.534;2024-01-25T01:29:58;3.20;99.90
33207;DHT22;19565;46.602;11.534;2024-01-25T01:32:26;3.20;99.90
33207;DHT22;19565;46.602;11.534;2024-01-25T01:34:55;3.00;99.90
33207;DHT22;19565;46.602;11.534;2024-01-25T01:37:23;3.10;99.90
33207;DHT22;19565;46.602;11.534;2024-01-25T01:39:51;3.20;99.90
33207;DHT22;19565;46.602;11.534;2024-01-25T01:42:22;3.30;99.90
33207;DHT22;19565;46.602;11.534;2024-01-25T01:44:52;3.30;99.90
33207;DHT22;19565;46.602;11.534;2024-01-25T01:47:21;3.30;99.90
33207;DHT22;19565;46.602;11.534;2024-01-25T01:49:50;3.30;99.90
33207;DHT22;19565;46.602;11.534;2024-01-25T01:52:18;3.40;99.90
33207;DHT22;19565;46.602;11.534;2024-01-25T01:54:47;3.50;99.90
33207;DHT22;19565;46.602;11.534;2024-01-25T01:57:16;3.50;99.90
33207;DHT22;19565;46.602;11.534;2024-01-25T01:59:44;3.50;99.90
33207;DHT22;19565;46.602;11.534;2024-01-25T02:02:13;3.50;99.90
33207;DHT22;19565;46.602;11.534;2024-01-25T02:04:43;3.50;99.90
33207;DHT22;19565;46.602;11.534;2024-01-25T02:07:12;3.60;99.90
33207;DHT22;19565;46.602;11.534;2024-01-25T02:09:41;3.60;99.90
33207;DHT22;19565;46.602;11.534;2024-01-25T02:12:10;3.60;99.90
33207;DHT22;19565;46.602;11.534;2024-01-25T02:14:38;3.50;99.90
33207;DHT22;19565;46.602;11.534;2024-01-25T02:17:06;3.60;99.90
33207;DHT22;19565;46.602;11.534;2024-01-25T02:19:34;3.60;99.90
33207;DHT22;19565;46.602;11.534;2024-01-25T02:22:05;3.60;99.90
33207;DHT22;19565;46.602;11.534;2024-01-25T02:24:34;3.50;99.90
33207;DHT22;19565;46.602;11.534;2024-01-25T02:27:03;3.50;99.90
33207;DHT22;19565;46.602;11.534;2024-01-25T02:29:32;3.40;99.90
33207;DHT22;19565;46.602;11.534;2024-01-25T02:32:03;3.40;99.90
33207;DHT22;19565;46.602;11.534;2024-01-25T02:34:31;3.40;99.90
33207;DHT22;19565;46.602;11.534;2024-01-25T02:36:59;3.40;99.90
33207;DHT22;19565;46.602;11.534;2024-01-25T02:39:27;3.30;99.90
33207;DHT22;19565;46.602;11.534;2024-01-25T02:41:57;3.40;99.90
33207;DHT22;19565;46.602;11.534;2024-01-25T02:44:25;3.40;99.90
33207;DHT22;19565;46.602;11.534;2024-01-25T02:46:53;3.40;99.90
33207;DHT22;19565;46.602;11.534;2024-01-25T02:49:21;3.50;99.90
33207;DHT22;19565;46.602;11.534;2024-01-25T02:51:51;3.50;99.90
33207;DHT22;19565;46.602;11.534;2024-01-25T02:54:19;3.50;99.90
33207;DHT22;19565;46.602;11.534;2024-01-25T02:56:48;3.40;99.90
33207;DHT22;19565;46.602;11.534;2024-01-25T02:59:17;3.30;99.90
33207;DHT22;19565;46.602;11.534;2024-01-25T03:01:45;3.30;99.90
33207;DHT22;19565;46.602;11.534;2024-01-25T03:04:14;3.30;99.90
33207;DHT22;19565;46.602;11.534;2024-01-25T03:06:43;3.40;99.90
33207;DHT22;19565;46.602;11.534;2024-01-25T03:09:11;3.50;99.90
33207;DHT22;19565;46.602;11.534;2024-01-25T03:11:39;3.50;99.90
33207;DHT22;19565;46.602;11.534;2024-01-25T03:14:07;3.50;99.90
33207;DHT22;19565;46.602;11.534;2024-01-25T03:16:36;3.60;99.90
33207;DHT22;19565;46.602;11.534;2024-01-25T03:19:04;3.60;99.90
33207;DHT22;19565;46.602;11.534;2024-01-25T03:21:32;3.60;99.90
33207;DHT22;19565;46.602;11.534;2024-01-25T03:24:00;3.60;99.90
33207;DHT22;19565;46.602;11.534;2024-01-25T03:26:29;3.60;99.90
33207;DHT22;19565;46.602;11.534;2024-01-25T03:28:57;3.60;99.90
33207;DHT22;19565;46.602;11.534;2024-01-25T03:31:25;3.60;99.90
33207;DHT22;19565;46.602;11.534;2024-01-25T03:33:54;3.60;99.90
33207;DHT22;19565;46.602;11.534;2024-01-25T03:36:23;3.50;99.90
33207;DHT22;19565;46.602;11.534;2024-01-25T03:38:51;3.30;99.90
33207;DHT22;19565;46.602;11.534;2024-01-25T03:41:19;3.30;99.90
33207;DHT22;19565;46.602;11.534;2024-01-25T03:43:47;3.40;99.90
33207;DHT22;19565;46.602;11.534;2024-01-25T03:46:16;3.40;99.90
33207;DHT22;19565;46.602;11.534;2024-01-25T03:48:44;3.50;99.90
33207;DHT22;19565;46.602;11.534;2024-01-25T03:51:13;3.50;99.90
33207;DHT22;19565;46.602;11.534;2024-01-25T03:53:43;3.50;99.90
33207;DHT22;19565;46.602;11.534;2024-01-25T03:56:11;3.50;99.90
33207;DHT22;19565;46.602;11.534;2024-01-25T03:58:40;3.60;99.90
33207;DHT22;19565;46.602;11.534;2024-01-25T04:01:08;3.60;99.90
33207;DHT22;19565;46.602;11.534;2024-01-25T04:03:39;3.60;99.90
33207;DHT22;19565;46.602;11.534;2024-01-25T04:06:08;3.50;99.90
33207;DHT22;19565;46.602;11.534;2024-01-25T04:08:38;3.50;99.90
33207;DHT22;19565;46.602;11.534;2024-01-25T04:11:06;3.50;99.90
33207;DHT22;19565;46.602;11.534;2024-01-25T04:13:35;3.30;99.90
33207;DHT22;19565;46.602;11.534;2024-01-25T04:16:04;3.40;99.90
33207;DHT22;19565;46.602;11.534;2024-01-25T04:18:35;3.30;99.90
33207;DHT22;19565;46.602;11.534;2024-01-25T04:21:05;3.30;99.90
33207;DHT22;19565;46.602;11.534;2024-01-25T04:23:34;3.30;99.90
33207;DHT22;19565;46.602;11.534;2024-01-25T04:26:03;3.40;99.90
33207;DHT22;19565;46.602;11.534;2024-01-25T04:28:31;3.40;99.90
33207;DHT22;19565;46.602;11.534;2024-01-25T04:31:00;3.30;99.90
33207;DHT22;19565;46.602;11.534;2024-01-25T04:33:30;3.30;99.90
33207;DHT22;19565;46.602;11.534;2024-01-25T04:35:58;3.30;99.90
33207;DHT22;19565;46.602;11.534;2024-01-25T04:38:26;3.30;99.90
33207;DHT22;19565;46.602;11.534;2024-01-25T04:40:54;3.40;99.90
33207;DHT22;19565;46.602;11.534;2024-01-25T04:43:24;3.40;99.90
33207;DHT22;19565;46.602;11.534;2024-01-25T04:45:52;3.50;99.90
33207;DHT22;19565;46.602;11.534;2024-01-25T04:48:20;3.50;99.90
33207;DHT22;19565;46.602;11.534;2024-01-25T04:50:49;3.40;99.90
33207;DHT22;19565;46.602;11.534;2024-01-25T04:53:17;3.40;99.90
33207;DHT22;19565;46.602;11.534;2024-01-25T04:55:45;3.50;99.90
33207;DHT22;19565;46.602;11.534;2024-01-25T04:58:13;3.50;99.90
33207;DHT22;19565;46.602;11.534;2024-01-25T05:00:42;3.70;99.90
33207;DHT22;19565;46.602;11.534;2024-01-25T05:03:11;3.70;99.90
33207;DHT22;19565;46.602;11.534;2024-01-25T05:05:39;3.70;99.90
33207;DHT22;19565;46.602;11.534;2024-01-25T05:08:07;3.80;99.90
33207;DHT22;19565;46.602;11.534;2024-01-25T05:10:35;3.80;99.90
33207;DHT22;19565;46.602;11.534;2024-01-25T05:13:04;3.70;99.90
33207;DHT22;19565;46.602;11.534;2024-01-25T05:15:32;3.70;99.90
33207;DHT22;19565;46.602;11.534;2024-01-25T05:18:01;3.80;99.90
33207;DHT22;19565;46.602;11.534;2024-01-25T05:20:32;3.80;99.90
33207;DHT22;19565;46.602;11.534;2024-01-25T05:23:01;3.90;99.90
33207;DHT22;19565;46.602;11.534;2024-01-25T05:25:31;3.90;99.90
33207;DHT22;19565;46.602;11.534;2024-01-25T05:27:59;3.80;99.90
33207;DHT22;19565;46.602;11.534;2024-01-25T05:30:30;3.70;99.90
33207;DHT22;19565;46.602;11.534;2024-01-25T05:32:58;3.70;99.90
33207;DHT22;19565;46.602;11.534;2024-01-25T05:35:29;3.80;99.90
33207;DHT22;19565;46.602;11.534;2024-01-25T05:37:57;3.80;99.90
33207;DHT22;19565;46.602;11.534;2024-01-25T05:40:25;3.80;99.90
33207;DHT22;19565;46.602;11.534;2024-01-25T05:42:53;3.70;99.90
33207;DHT22;19565;46.602;11.534;2024-01-25T05:45:22;3.80;99.90
33207;DHT22;19565;46.602;11.534;2024-01-25T05:47:51;3.70;99.90
33207;DHT22;19565;46.602;11.534;2024-01-25T05:50:19;3.70;99.90
33207;DHT22;19565;46.602;11.534;2024-01-25T05:52:49;3.70;99.90
33207;DHT22;19565;46.602;11.534;2024-01-25T05:55:17;3.70;99.90
33207;DHT22;19565;46.602;11.534;2024-01-25T05:57:45;3.70;99.90
33207;DHT22;19565;46.602;11.534;2024-01-25T06:00:14;3.70;99.90
33207;DHT22;19565;46.602;11.534;2024-01-25T06:02:47;3.70;99.90
33207;DHT22;19565;46.602;11.534;2024-01-25T06:05:16;3.70;99.90
33207;DHT22;19565;46.602;11.534;2024-01-25T06:07:48;3.70;99.90
33207;DHT22;19565;46.602;11.534;2024-01-25T06:10:19;3.80;99.90
33207;DHT22;19565;46.602;11.534;2024-01-25T06:12:47;3.90;99.90
33207;DHT22;19565;46.602;11.534;2024-01-25T06:15:16;3.90;99.90
33207;DHT22;19565;46.602;11.534;2024-01-25T06:17:44;3.90;99.90
33207;DHT22;19565;46.602;11.534;2024-01-25T06:20:12;4.00;99.90
33207;DHT22;19565;46.602;11.534;2024-01-25T06:22:40;4.00;99.90
33207;DHT22;19565;46.602;11.534;2024-01-25T06:25:09;4.10;99.90
33207;DHT22;19565;46.602;11.534;2024-01-25T06:27:38;4.20;99.90
33207;DHT22;19565;46.602;11.534;2024-01-25T06:30:07;4.20;99.90
33207;DHT22;19565;46.602;11.534;2024-01-25T06:32:36;4.20;99.90
33207;DHT22;19565;46.602;11.534;2024-01-25T06:35:05;4.20;99.90
33207;DHT22;19565;46.602;11.534;2024-01-25T06:37:34;4.20;99.90
33207;DHT22;19565;46.602;11.534;2024-01-25T06:40:03;4.20;99.90
33207;DHT22;19565;46.602;11.534;2024-01-25T06:42:32;4.10;99.90
33207;DHT22;19565;46.602;11.534;2024-01-25T06:45:02;4.20;99.90
33207;DHT22;19565;46.602;11.534;2024-01-25T06:47:30;4.10;99.90
33207;DHT22;19565;46.602;11.534;2024-01-25T06:49:58;4.20;99.90
33207;DHT22;19565;46.602;11.534;2024-01-25T06:52:27;4.20;99.90
33207;DHT22;19565;46.602;11.534;2024-01-25T06:54:56;4.20;99.90
33207;DHT22;19565;46.602;11.534;2024-01-25T06:57:24;4.20;99.90
33207;DHT22;19565;46.602;11.534;2024-01-25T06:59:52;4.30;99.90
33207;DHT22;19565;46.602;11.534;2024-01-25T07:02:22;4.30;99.90
33207;DHT22;19565;46.602;11.534;2024-01-25T07:04:51;4.30;99.90
33207;DHT22;19565;46.602;11.534;2024-01-25T07:07:21;4.40;99.90
33207;DHT22;19565;46.602;11.534;2024-01-25T07:09:49;4.40;99.90
33207;DHT22;19565;46.602;11.534;2024-01-25T07:12:18;4.30;99.90
33207;DHT22;19565;46.602;11.534;2024-01-25T07:14:46;4.30;99.90
33207;DHT22;19565;46.602;11.534;2024-01-25T07:17:14;4.40;99.90
33207;DHT22;19565;46.602;11.534;2024-01-25T07:19:43;4.40;99.90
33207;DHT22;19565;46.602;11.534;2024-01-25T07:22:12;4.50;99.90
33207;DHT22;19565;46.602;11.534;2024-01-25T07:24:42;4.50;99.90
33207;DHT22;19565;46.602;11.534;2024-01-25T07:27:10;4.50;99.90
33207;DHT22;19565;46.602;11.534;2024-01-25T07:29:38;4.60;99.90
33207;DHT22;19565;46.602;11.534;2024-01-25T07:32:06;4.60;99.90
33207;DHT22;19565;46.602;11.534;2024-01-25T07:34:35;4.60;99.90
33207;DHT22;19565;46.602;11.534;2024-01-25T07:37:05;4.60;99.90
33207;DHT22;19565;46.602;11.534;2024-01-25T07:39:33;4.70;99.90
33207;DHT22;19565;46.602;11.534;2024-01-25T07:42:01;4.70;99.90
33207;DHT22;19565;46.602;11.534;2024-01-25T07:44:29;4.70;99.90
33207;DHT22;19565;46.602;11.534;2024-01-25T07:46:58;4.80;99.90
33207;DHT22;19565;46.602;11.534;2024-01-25T07:49:26;4.80;99.90
33207;DHT22;19565;46.602;11.534;2024-01-25T07:51:54;4.80;99.90
33207;DHT22;19565;46.602;11.534;2024-01-25T07:54:24;4.90;99.90
33207;DHT22;19565;46.602;11.534;2024-01-25T07:56:53;4.90;99.90
33207;DHT22;19565;46.602;11.534;2024-01-25T07:59:21;4.90;99.90
33207;DHT22;19565;46.602;11.534;2024-01-25T08:01:49;4.90;99.90
33207;DHT22;19565;46.602;11.534;2024-01-25T08:04:17;5.00;99.90
33207;DHT22;19565;46.602;11.534;2024-01-25T08:06:46;5.00;99.90
33207;DHT22;19565;46.602;11.534;2024-01-25T08:09:14;5.00;99.90
33207;DHT22;19565;46.602;11.534;2024-01-25T08:11:43;5.10;99.90
33207;DHT22;19565;46.602;11.534;2024-01-25T08:14:11;5.20;99.90
33207;DHT22;19565;46.602;11.534;2024-01-25T08:16:40;5.20;99.90
33207;DHT22;19565;46.602;11.534;2024-01-25T08:19:09;5.20;99.90
33207;DHT22;19565;46.602;11.534;2024-01-25T08:21:37;5.30;99.90
33207;DHT22;19565;46.602;11.534;2024-01-25T08:24:06;5.30;99.90
33207;DHT22;19565;46.602;11.534;2024-01-25T08:26:35;5.30;99.90
33207;DHT22;19565;46.602;11.534;2024-01-25T08:29:04;5.40;99.90
33207;DHT22;19565;46.602;11.534;2024-01-25T08:31:32;5.50;99.90
33207;DHT22;19565;46.602;11.534;2024-01-25T08:34:01;5.60;99.90
33207;DHT22;19565;46.602;11.534;2024-01-25T08:36:29;5.60;99.90
33207;DHT22;19565;46.602;11.534;2024-01-25T08:38:57;5.70;99.90
33207;DHT22;19565;46.602;11.534;2024-01-25T08:41:25;5.80;99.90
33207;DHT22;19565;46.602;11.534;2024-01-25T08:43:53;5.80;99.90
33207;DHT22;19565;46.602;11.534;2024-01-25T08:46:23;5.80;99.90
33207;DHT22;19565;46.602;11.534;2024-01-25T08:48:51;5.90;99.90
33207;DHT22;19565;46.602;11.534;2024-01-25T08:51:20;6.00;99.90
33207;DHT22;19565;46.602;11.534;2024-01-25T08:53:48;6.10;99.90
33207;DHT22;19565;46.602;11.534;2024-01-25T08:56:18;6.20;99.90
33207;DHT22;19565;46.602;11.534;2024-01-25T08:58:46;6.20;99.90
33207;DHT22;19565;46.602;11.534;2024-01-25T09:01:14;6.30;99.90
33207;DHT22;19565;46.602;11.534;2024-01-25T09:03:44;6.40;99.90
33207;DHT22;19565;46.602;11.534;2024-01-25T09:06:12;6.50;99.90
33207;DHT22;19565;46.602;11.534;2024-01-25T09:08:42;6.50;99.90
33207;DHT22;19565;46.602;11.534;2024-01-25T09:11:10;6.60;99.90
33207;DHT22;19565;46.602;11.534;2024-01-25T09:13:38;6.60;99.90
33207;DHT22;19565;46.602;11.534;2024-01-25T09:16:12;6.60;99.90
33207;DHT22;19565;46.602;11.534;2024-01-25T09:18:41;6.80;99.90
33207;DHT22;19565;46.602;11.534;2024-01-25T09:21:11;6.80;99.90
33207;DHT22;19565;46.602;11.534;2024-01-25T09:23:39;7.00;99.90
33207;DHT22;19565;46.602;11.534;2024-01-25T09:26:07;7.10;99.90
33207;DHT22;19565;46.602;11.534;2024-01-25T09:28:36;7.20;99.90
33207;DHT22;19565;46.602;11.534;2024-01-25T09:31:04;7.40;99.90
33207;DHT22;19565;46.602;11.534;2024-01-25T09:33:33;7.50;99.90
33207;DHT22;19565;46.602;11.534;2024-01-25T09:36:02;7.50;99.90
33207;DHT22;19565;46.602;11.534;2024-01-25T09:38:32;7.70;99.90
33207;DHT22;19565;46.602;11.534;2024-01-25T09:41:01;7.80;99.90
33207;DHT22;19565;46.602;11.534;2024-01-25T09:43:30;7.90;99.90
33207;DHT22;19565;46.602;11.534;2024-01-25T09:46:00;8.00;99.90
33207;DHT22;19565;46.602;11.534;2024-01-25T09:48:28;8.10;99.90
33207;DHT22;19565;46.602;11.534;2024-01-25T09:50:59;8.40;99.90
33207;DHT22;19565;46.602;11.534;2024-01-25T09:53:29;8.60;99.90
33207;DHT22;19565;46.602;11.534;2024-01-25T09:56:06;8.70;99.90
33207;DHT22;19565;46.602;11.534;2024-01-25T09:58:38;8.80;99.90
33207;DHT22;19565;46.602;11.534;2024-01-25T10:01:08;8.90;99.90
33207;DHT22;19565;46.602;11.534;2024-01-25T10:03:38;8.90;99.90
33207;DHT22;19565;46.602;11.534;2024-01-25T10:06:08;9.00;99.90
33207;DHT22;19565;46.602;11.534;2024-01-25T10:08:36;9.00;99.90
33207;DHT22;19565;46.602;11.534;2024-01-25T10:11:06;9.00;99.90
33207;DHT22;19565;46.602;11.534;2024-01-25T10:13:40;9.20;99.90
33207;DHT22;19565;46.602;11.534;2024-01-25T10:16:10;9.30;99.90
33207;DHT22;19565;46.602;11.534;2024-01-25T10:18:40;9.30;99.90
33207;DHT22;19565;46.602;11.534;2024-01-25T10:21:09;9.30;99.90
33207;DHT22;19565;46.602;11.534;2024-01-25T10:23:38;9.50;99.90
33207;DHT22;19565;46.602;11.534;2024-01-25T10:26:09;9.60;99.90
33207;DHT22;19565;46.602;11.534;2024-01-25T10:28:38;9.80;99.90
33207;DHT22;19565;46.602;11.534;2024-01-25T10:31:06;9.80;99.90
33207;DHT22;19565;46.602;11.534;2024-01-25T10:33:38;9.90;99.90
33207;DHT22;19565;46.602;11.534;2024-01-25T10:36:08;10.00;99.90
33207;DHT22;19565;46.602;11.534;2024-01-25T10:38:39;10.00;99.90
33207;DHT22;19565;46.602;11.534;2024-01-25T10:41:09;10.10;99.90
33207;DHT22;19565;46.602;11.534;2024-01-25T10:43:37;10.30;99.90
33207;DHT22;19565;46.602;11.534;2024-01-25T10:46:06;10.40;99.90
33207;DHT22;19565;46.602;11.534;2024-01-25T10:48:37;10.50;99.90
33207;DHT22;19565;46.602;11.534;2024-01-25T10:51:06;10.70;99.90
33207;DHT22;19565;46.602;11.534;2024-01-25T10:53:34;10.70;99.90
33207;DHT22;19565;46.602;11.534;2024-01-25T10:56:03;10.90;99.90
33207;DHT22;19565;46.602;11.534;2024-01-25T10:58:33;11.00;99.90
33207;DHT22;19565;46.602;11.534;2024-01-25T11:01:08;11.20;99.90
33207;DHT22;19565;46.602;11.534;2024-01-25T11:03:42;11.20;99.90
33207;DHT22;19565;46.602;11.534;2024-01-25T11:06:14;11.10;99.90
33207;DHT22;19565;46.602;11.534;2024-01-25T11:08:43;11.20;99.90
33207;DHT22;19565;46.602;11.534;2024-01-25T11:11:12;11.30;99.90
33207;DHT22;19565;46.602;11.534;2024-01-25T11:13:43;11.60;99.90
33207;DHT22;19565;46.602;11.534;2024-01-25T11:16:13;11.70;99.90
33207;DHT22;19565;46.602;11.534;2024-01-25T11:18:49;11.80;99.90
33207;DHT22;19565;46.602;11.534;2024-01-25T11:21:27;11.80;99.90
33207;DHT22;19565;46.602;11.534;2024-01-25T11:24:00;12.00;99.90
33207;DHT22;19565;46.602;11.534;2024-01-25T11:26:32;12.00;99.90
33207;DHT22;19565;46.602;11.534;2024-01-25T11:29:02;12.20;99.90
33207;DHT22;19565;46.602;11.534;2024-01-25T11:31:30;12.30;99.90
33207;DHT22;19565;46.602;11.534;2024-01-25T11:33:59;12.40;99.90
33207;DHT22;19565;46.602;11.534;2024-01-25T11:36:28;12.60;99.90
33207;DHT22;19565;46.602;11.534;2024-01-25T11:38:57;12.90;99.90
33207;DHT22;19565;46.602;11.534;2024-01-25T11:41:25;13.10;99.90
33207;DHT22;19565;46.602;11.534;2024-01-25T11:43:54;13.00;99.90
33207;DHT22;19565;46.602;11.534;2024-01-25T11:46:23;13.10;99.90
33207;DHT22;19565;46.602;11.534;2024-01-25T11:48:53;13.10;99.90
33207;DHT22;19565;46.602;11.534;2024-01-25T11:51:21;13.10;99.90
33207;DHT22;19565;46.602;11.534;2024-01-25T11:53:49;13.30;99.90
33207;DHT22;19565;46.602;11.534;2024-01-25T11:56:20;13.40;99.90
33207;DHT22;19565;46.602;11.534;2024-01-25T11:58:50;13.40;99.90
33207;DHT22;19565;46.602;11.534;2024-01-25T12:01:19;13.50;99.90
33207;DHT22;19565;46.602;11.534;2024-01-25T12:03:49;13.70;99.90
33207;DHT22;19565;46.602;11.534;2024-01-25T12:06:18;13.70;99.80
33207;DHT22;19565;46.602;11.534;2024-01-25T12:08:46;13.60;99.90
33207;DHT22;19565;46.602;11.534;2024-01-25T12:11:15;13.60;99.20
33207;DHT22;19565;46.602;11.534;2024-01-25T12:13:45;13.60;98.60
33207;DHT22;19565;46.602;11.534;2024-01-25T12:16:13;13.80;98.00
33207;DHT22;19565;46.602;11.534;2024-01-25T12:18:43;14.00;97.30
33207;DHT22;19565;46.602;11.534;2024-01-25T12:21:13;14.00;97.40
33207;DHT22;19565;46.602;11.534;2024-01-25T12:23:42;14.00;97.50
33207;DHT22;19565;46.602;11.534;2024-01-25T12:26:11;14.00;96.90
33207;DHT22;19565;46.602;11.534;2024-01-25T12:28:40;14.10;96.90
33207;DHT22;19565;46.602;11.534;2024-01-25T12:31:09;14.00;96.80
33207;DHT22;19565;46.602;11.534;2024-01-25T12:33:37;14.10;96.20
33207;DHT22;19565;46.602;11.534;2024-01-25T12:36:06;14.10;96.10
33207;DHT22;19565;46.602;11.534;2024-01-25T12:38:36;14.10;96.20
33207;DHT22;19565;46.602;11.534;2024-01-25T12:41:04;14.10;95.70
33207;DHT22;19565;46.602;11.534;2024-01-25T12:43:33;14.20;95.60
33207;DHT22;19565;46.602;11.534;2024-01-25T12:46:01;14.20;95.60
33207;DHT22;19565;46.602;11.534;2024-01-25T12:48:48;14.20;95.20
33207;DHT22;19565;46.602;11.534;2024-01-25T12:51:16;14.30;94.70
33207;DHT22;19565;46.602;11.534;2024-01-25T12:53:46;14.30;94.80
33207;DHT22;19565;46.602;11.534;2024-01-25T12:56:14;14.30;94.60
33207;DHT22;19565;46.602;11.534;2024-01-25T12:58:43;14.30;94.30
33207;DHT22;19565;46.602;11.534;2024-01-25T13:01:11;14.30;94.00
33207;DHT22;19565;46.602;11.534;2024-01-25T13:03:42;14.40;93.30
33207;DHT22;19565;46.602;11.534;2024-01-25T13:06:12;14.40;93.10
33207;DHT22;19565;46.602;11.534;2024-01-25T13:08:41;14.40;92.70
33207;DHT22;19565;46.602;11.534;2024-01-25T13:11:11;14.40;92.70
33207;DHT22;19565;46.602;11.534;2024-01-25T13:13:39;14.50;92.60
33207;DHT22;19565;46.602;11.534;2024-01-25T13:16:07;14.50;92.50
33207;DHT22;19565;46.602;11.534;2024-01-25T13:18:36;14.40;92.70
33207;DHT22;19565;46.602;11.534;2024-01-25T13:21:04;14.50;92.10
33207;DHT22;19565;46.602;11.534;2024-01-25T13:23:32;14.50;92.20
33207;DHT22;19565;46.602;11.534;2024-01-25T13:26:01;14.40;92.00
33207;DHT22;19565;46.602;11.534;2024-01-25T13:28:31;14.50;91.90
33207;DHT22;19565;46.602;11.534;2024-01-25T13:31:00;14.40;92.10
33207;DHT22;19565;46.602;11.534;2024-01-25T13:33:29;14.20;92.30
33207;DHT22;19565;46.602;11.534;2024-01-25T13:35:57;14.30;92.30
33207;DHT22;19565;46.602;11.534;2024-01-25T13:38:25;14.40;92.10
33207;DHT22;19565;46.602;11.534;2024-01-25T13:40:54;14.40;92.00
33207;DHT22;19565;46.602;11.534;2024-01-25T13:43:22;14.40;91.90
33207;DHT22;19565;46.602;11.534;2024-01-25T13:45:52;14.40;92.00
33207;DHT22;19565;46.602;11.534;2024-01-25T13:48:21;14.30;92.20
33207;DHT22;19565;46.602;11.534;2024-01-25T13:50:49;14.20;92.20
33207;DHT22;19565;46.602;11.534;2024-01-25T13:53:17;14.10;92.10
33207;DHT22;19565;46.602;11.534;2024-01-25T13:55:45;14.10;92.10
33207;DHT22;19565;46.602;11.534;2024-01-25T13:58:13;14.20;92.00
33207;DHT22;19565;46.602;11.534;2024-01-25T14:00:44;14.10;92.10
33207;DHT22;19565;46.602;11.534;2024-01-25T14:03:14;14.00;92.50
33207;DHT22;19565;46.602;11.534;2024-01-25T14:05:43;13.80;92.50
33207;DHT22;19565;46.602;11.534;2024-01-25T14:08:11;13.70;92.70
33207;DHT22;19565;46.602;11.534;2024-01-25T14:10:39;13.60;93.10
33207;DHT22;19565;46.602;11.534;2024-01-25T14:13:08;13.50;93.40
33207;DHT22;19565;46.602;11.534;2024-01-25T14:15:36;13.50;93.40
33207;DHT22;19565;46.602;11.534;2024-01-25T14:18:04;13.40;93.40
33207;DHT22;19565;46.602;11.534;2024-01-25T14:20:34;13.30;93.60
33207;DHT22;19565;46.602;11.534;2024-01-25T14:23:03;13.20;93.80
33207;DHT22;19565;46.602;11.534;2024-01-25T14:25:32;13.20;94.10
33207;DHT22;19565;46.602;11.534;2024-01-25T14:28:00;13.10;94.50
33207;DHT22;19565;46.602;11.534;2024-01-25T14:30:28;13.10;94.70
33207;DHT22;19565;46.602;11.534;2024-01-25T14:32:56;13.00;94.50
33207;DHT22;19565;46.602;11.534;2024-01-25T14:35:26;12.90;94.80
33207;DHT22;19565;46.602;11.534;2024-01-25T14:37:57;12.90;94.80
33207;DHT22;19565;46.602;11.534;2024-01-25T14:40:25;12.80;95.10
33207;DHT22;19565;46.602;11.534;2024-01-25T14:43:14;12.60;95.30
33207;DHT22;19565;46.602;11.534;2024-01-25T14:45:43;12.50;95.80
33207;DHT22;19565;46.602;11.534;2024-01-25T14:48:11;12.40;96.10
33207;DHT22;19565;46.602;11.534;2024-01-25T14:50:39;12.30;96.40
33207;DHT22;19565;46.602;11.534;2024-01-25T14:53:09;12.20;96.30
33207;DHT22;19565;46.602;11.534;2024-01-25T14:55:37;12.20;96.40
33207;DHT22;19565;46.602;11.534;2024-01-25T14:58:05;12.10;96.80
33207;DHT22;19565;46.602;11.534;2024-01-25T15:00:35;12.00;97.00
33207;DHT22;19565;46.602;11.534;2024-01-25T15:03:03;11.90;97.20
33207;DHT22;19565;46.602;11.534;2024-01-25T15:05:32;11.80;97.50
33207;DHT22;19565;46.602;11.534;2024-01-25T15:08:00;11.70;97.90
33207;DHT22;19565;46.602;11.534;2024-01-25T15:10:29;11.60;98.10
33207;DHT22;19565;46.602;11.534;2024-01-25T15:12:58;11.50;98.20
33207;DHT22;19565;46.602;11.534;2024-01-25T15:15:27;11.40;98.60
33207;DHT22;19565;46.602;11.534;2024-01-25T15:17:55;11.30;98.80
33207;DHT22;19565;46.602;11.534;2024-01-25T15:20:23;11.20;99.20
33207;DHT22;19565;46.602;11.534;2024-01-25T15:22:51;11.20;99.60
33207;DHT22;19565;46.602;11.534;2024-01-25T15:25:24;11.10;99.80
33207;DHT22;19565;46.602;11.534;2024-01-25T15:27:54;11.00;99.80
33207;DHT22;19565;46.602;11.534;2024-01-25T15:30:23;10.90;99.90
33207;DHT22;19565;46.602;11.534;2024-01-25T15:32:51;10.80;99.90
33207;DHT22;19565;46.602;11.534;2024-01-25T15:35:20;10.80;99.90